sensor_id;sensor_type;location;lat;lon;timestamp;P1;durP1;ratioP1;P2;durP2;ratioP2
75400;SDS011;63974;47.538;18.972;2023-03-02T00:01:13;15.32;;;7.10;;
75400;SDS011;63974;47.538;18.972;2023-03-02T00:04:16;13.87;;;6.77;;
75400;SDS011;63974;47.538;18.972;2023-03-02T00:07:28;12.38;;;6.53;;
75400;SDS011;63974;47.538;18.972;2023-03-02T00:10:33;14.63;;;6.43;;
75400;SDS011;63974;47.538;18.972;2023-03-02T00:13:37;13.73;;;5.80;;
75400;SDS011;63974;47.538;18.972;2023-03-02T00:16:40;12.02;;;6.20;;
75400;SDS011;63974;47.538;18.972;2023-03-02T00:19:43;13.60;;;6.10;;
75400;SDS011;63974;47.538;18.972;2023-03-02T00:22:46;12.43;;;5.68;;
75400;SDS011;63974;47.538;18.972;2023-03-02T00:25:49;10.48;;;4.95;;
75400;SDS011;63974;47.538;18.972;2023-03-02T00:28:52;13.45;;;6.82;;
75400;SDS011;63974;47.538;18.972;2023-03-02T00:31:56;11.75;;;6.95;;
75400;SDS011;63974;47.538;18.972;2023-03-02T00:34:58;12.03;;;5.23;;
75400;SDS011;63974;47.538;18.972;2023-03-02T00:38:01;12.15;;;5.40;;
75400;SDS011;63974;47.538;18.972;2023-03-02T00:41:04;13.50;;;6.07;;
75400;SDS011;63974;47.538;18.972;2023-03-02T00:44:07;13.73;;;5.63;;
75400;SDS011;63974;47.538;18.972;2023-03-02T00:47:10;13.20;;;6.43;;
75400;SDS011;63974;47.538;18.972;2023-03-02T00:50:13;11.63;;;6.30;;
75400;SDS011;63974;47.538;18.972;2023-03-02T00:53:16;15.60;;;5.82;;
75400;SDS011;63974;47.538;18.972;2023-03-02T00:56:19;11.73;;;5.72;;
75400;SDS011;63974;47.538;18.972;2023-03-02T00:59:25;12.93;;;5.40;;
75400;SDS011;63974;47.538;18.972;2023-03-02T01:02:41;12.27;;;5.72;;
75400;SDS011;63974;47.538;18.972;2023-03-02T01:05:49;10.77;;;5.90;;
75400;SDS011;63974;47.538;18.972;2023-03-02T01:08:56;10.63;;;5.25;;
75400;SDS011;63974;47.538;18.972;2023-03-02T01:11:59;13.20;;;6.00;;
75400;SDS011;63974;47.538;18.972;2023-03-02T01:15:02;12.65;;;5.57;;
75400;SDS011;63974;47.538;18.972;2023-03-02T01:18:06;9.55;;;5.07;;
75400;SDS011;63974;47.538;18.972;2023-03-02T01:21:11;11.87;;;5.40;;
75400;SDS011;63974;47.538;18.972;2023-03-02T01:24:15;12.55;;;5.78;;
75400;SDS011;63974;47.538;18.972;2023-03-02T01:27:18;14.70;;;6.38;;
75400;SDS011;63974;47.538;18.972;2023-03-02T01:30:22;13.10;;;6.88;;
75400;SDS011;63974;47.538;18.972;2023-03-02T01:33:24;14.25;;;5.55;;
75400;SDS011;63974;47.538;18.972;2023-03-02T01:36:27;12.90;;;6.70;;
75400;SDS011;63974;47.538;18.972;2023-03-02T01:39:30;13.60;;;6.38;;
75400;SDS011;63974;47.538;18.972;2023-03-02T01:42:36;14.32;;;6.90;;
75400;SDS011;63974;47.538;18.972;2023-03-02T01:48:47;13.05;;;5.85;;
75400;SDS011;63974;47.538;18.972;2023-03-02T01:51:58;15.57;;;6.80;;
75400;SDS011;63974;47.538;18.972;2023-03-02T01:55:02;13.70;;;6.38;;
75400;SDS011;63974;47.538;18.972;2023-03-02T01:58:08;14.73;;;6.65;;
75400;SDS011;63974;47.538;18.972;2023-03-02T02:01:13;14.75;;;6.68;;
75400;SDS011;63974;47.538;18.972;2023-03-02T02:04:19;13.88;;;6.45;;
75400;SDS011;63974;47.538;18.972;2023-03-02T02:07:25;14.73;;;5.87;;
75400;SDS011;63974;47.538;18.972;2023-03-02T02:10:30;15.65;;;6.75;;
75400;SDS011;63974;47.538;18.972;2023-03-02T02:13:34;12.95;;;6.30;;
75400;SDS011;63974;47.538;18.972;2023-03-02T02:16:37;13.80;;;6.15;;
75400;SDS011;63974;47.538;18.972;2023-03-02T02:26:29;13.55;;;6.68;;
75400;SDS011;63974;47.538;18.972;2023-03-02T02:29:40;12.73;;;6.35;;
75400;SDS011;63974;47.538;18.972;2023-03-02T02:32:49;13.82;;;6.68;;
75400;SDS011;63974;47.538;18.972;2023-03-02T02:35:59;12.32;;;6.55;;
75400;SDS011;63974;47.538;18.972;2023-03-02T02:39:06;14.27;;;6.70;;
75400;SDS011;63974;47.538;18.972;2023-03-02T02:42:20;13.43;;;6.20;;
75400;SDS011;63974;47.538;18.972;2023-03-02T02:45:33;15.80;;;6.53;;
75400;SDS011;63974;47.538;18.972;2023-03-02T02:48:37;16.33;;;6.82;;
75400;SDS011;63974;47.538;18.972;2023-03-02T02:51:41;14.25;;;6.57;;
75400;SDS011;63974;47.538;18.972;2023-03-02T02:54:45;14.73;;;7.37;;
75400;SDS011;63974;47.538;18.972;2023-03-02T02:57:52;13.65;;;7.38;;
75400;SDS011;63974;47.538;18.972;2023-03-02T03:01:00;15.23;;;7.10;;
75400;SDS011;63974;47.538;18.972;2023-03-02T03:04:04;15.63;;;6.70;;
75400;SDS011;63974;47.538;18.972;2023-03-02T03:07:09;13.57;;;6.35;;
75400;SDS011;63974;47.538;18.972;2023-03-02T03:10:22;18.97;;;7.50;;
75400;SDS011;63974;47.538;18.972;2023-03-02T03:13:36;11.73;;;6.78;;
75400;SDS011;63974;47.538;18.972;2023-03-02T03:16:43;15.98;;;6.78;;
75400;SDS011;63974;47.538;18.972;2023-03-02T03:19:47;13.45;;;6.68;;
75400;SDS011;63974;47.538;18.972;2023-03-02T03:22:51;16.40;;;6.70;;
75400;SDS011;63974;47.538;18.972;2023-03-02T03:25:56;13.77;;;6.07;;
75400;SDS011;63974;47.538;18.972;2023-03-02T03:29:00;13.68;;;7.05;;
75400;SDS011;63974;47.538;18.972;2023-03-02T03:32:06;13.77;;;6.20;;
75400;SDS011;63974;47.538;18.972;2023-03-02T03:35:09;12.73;;;6.13;;
75400;SDS011;63974;47.538;18.972;2023-03-02T03:38:13;14.02;;;7.07;;
75400;SDS011;63974;47.538;18.972;2023-03-02T03:41:20;11.87;;;6.60;;
75400;SDS011;63974;47.538;18.972;2023-03-02T03:44:24;14.10;;;6.20;;
75400;SDS011;63974;47.538;18.972;2023-03-02T03:47:27;10.73;;;5.57;;
75400;SDS011;63974;47.538;18.972;2023-03-02T03:50:31;12.70;;;6.25;;
75400;SDS011;63974;47.538;18.972;2023-03-02T03:57:16;14.13;;;7.07;;
75400;SDS011;63974;47.538;18.972;2023-03-02T04:00:19;14.82;;;6.47;;
75400;SDS011;63974;47.538;18.972;2023-03-02T04:03:29;12.82;;;6.63;;
75400;SDS011;63974;47.538;18.972;2023-03-02T04:06:34;14.00;;;6.47;;
75400;SDS011;63974;47.538;18.972;2023-03-02T04:09:37;13.43;;;5.93;;
75400;SDS011;63974;47.538;18.972;2023-03-02T04:12:44;16.50;;;6.40;;
75400;SDS011;63974;47.538;18.972;2023-03-02T04:15:47;11.50;;;6.32;;
75400;SDS011;63974;47.538;18.972;2023-03-02T04:18:50;15.35;;;7.03;;
75400;SDS011;63974;47.538;18.972;2023-03-02T04:21:53;15.52;;;6.80;;
75400;SDS011;63974;47.538;18.972;2023-03-02T04:24:57;14.43;;;6.63;;
75400;SDS011;63974;47.538;18.972;2023-03-02T04:28:00;13.90;;;6.13;;
75400;SDS011;63974;47.538;18.972;2023-03-02T04:31:09;12.40;;;6.68;;
75400;SDS011;63974;47.538;18.972;2023-03-02T04:34:12;14.60;;;6.63;;
75400;SDS011;63974;47.538;18.972;2023-03-02T04:37:17;11.30;;;5.68;;
75400;SDS011;63974;47.538;18.972;2023-03-02T04:40:20;14.85;;;6.63;;
75400;SDS011;63974;47.538;18.972;2023-03-02T04:43:24;13.07;;;6.53;;
75400;SDS011;63974;47.538;18.972;2023-03-02T04:46:27;13.07;;;6.43;;
75400;SDS011;63974;47.538;18.972;2023-03-02T04:49:30;14.40;;;7.53;;
75400;SDS011;63974;47.538;18.972;2023-03-02T04:52:33;14.13;;;6.43;;
75400;SDS011;63974;47.538;18.972;2023-03-02T04:55:36;13.55;;;6.07;;
75400;SDS011;63974;47.538;18.972;2023-03-02T04:58:40;11.90;;;6.07;;
75400;SDS011;63974;47.538;18.972;2023-03-02T05:01:43;14.23;;;6.20;;
75400;SDS011;63974;47.538;18.972;2023-03-02T05:04:46;14.23;;;6.75;;
75400;SDS011;63974;47.538;18.972;2023-03-02T05:07:49;16.08;;;6.78;;
75400;SDS011;63974;47.538;18.972;2023-03-02T05:10:53;13.98;;;7.53;;
75400;SDS011;63974;47.538;18.972;2023-03-02T05:13:57;15.17;;;6.43;;
75400;SDS011;63974;47.538;18.972;2023-03-02T05:17:02;14.48;;;6.45;;
75400;SDS011;63974;47.538;18.972;2023-03-02T05:20:05;16.90;;;6.75;;
75400;SDS011;63974;47.538;18.972;2023-03-02T05:23:10;15.52;;;7.50;;
75400;SDS011;63974;47.538;18.972;2023-03-02T05:26:18;12.48;;;7.05;;
75400;SDS011;63974;47.538;18.972;2023-03-02T05:29:21;11.93;;;6.57;;
75400;SDS011;63974;47.538;18.972;2023-03-02T05:32:24;16.25;;;6.93;;
75400;SDS011;63974;47.538;18.972;2023-03-02T05:35:27;14.98;;;7.05;;
75400;SDS011;63974;47.538;18.972;2023-03-02T05:38:29;13.20;;;6.90;;
75400;SDS011;63974;47.538;18.972;2023-03-02T05:41:33;16.15;;;7.50;;
75400;SDS011;63974;47.538;18.972;2023-03-02T05:44:37;14.53;;;7.37;;
75400;SDS011;63974;47.538;18.972;2023-03-02T05:47:40;18.13;;;6.82;;
75400;SDS011;63974;47.538;18.972;2023-03-02T05:50:44;15.38;;;7.65;;
75400;SDS011;63974;47.538;18.972;2023-03-02T05:53:47;16.02;;;7.35;;
75400;SDS011;63974;47.538;18.972;2023-03-02T05:56:50;16.92;;;6.78;;
75400;SDS011;63974;47.538;18.972;2023-03-02T05:59:52;15.10;;;6.67;;
75400;SDS011;63974;47.538;18.972;2023-03-02T06:02:56;15.55;;;6.70;;
75400;SDS011;63974;47.538;18.972;2023-03-02T06:05:58;14.52;;;6.65;;
75400;SDS011;63974;47.538;18.972;2023-03-02T06:09:01;16.48;;;6.63;;
75400;SDS011;63974;47.538;18.972;2023-03-02T06:12:05;16.42;;;7.80;;
75400;SDS011;63974;47.538;18.972;2023-03-02T06:15:10;17.83;;;7.20;;
75400;SDS011;63974;47.538;18.972;2023-03-02T06:18:12;13.43;;;7.05;;
75400;SDS011;63974;47.538;18.972;2023-03-02T06:21:15;16.70;;;6.38;;
75400;SDS011;63974;47.538;18.972;2023-03-02T06:24:18;18.20;;;7.25;;
75400;SDS011;63974;47.538;18.972;2023-03-02T06:27:21;16.55;;;7.43;;
75400;SDS011;63974;47.538;18.972;2023-03-02T06:30:25;14.20;;;5.90;;
75400;SDS011;63974;47.538;18.972;2023-03-02T06:33:29;14.18;;;7.32;;
75400;SDS011;63974;47.538;18.972;2023-03-02T06:36:32;15.75;;;7.55;;
75400;SDS011;63974;47.538;18.972;2023-03-02T06:39:36;15.45;;;7.22;;
75400;SDS011;63974;47.538;18.972;2023-03-02T06:42:39;16.10;;;8.10;;
75400;SDS011;63974;47.538;18.972;2023-03-02T06:45:42;15.20;;;7.57;;
75400;SDS011;63974;47.538;18.972;2023-03-02T06:48:45;14.90;;;7.03;;
75400;SDS011;63974;47.538;18.972;2023-03-02T06:51:48;16.30;;;7.60;;
75400;SDS011;63974;47.538;18.972;2023-03-02T06:54:51;17.05;;;7.57;;
75400;SDS011;63974;47.538;18.972;2023-03-02T06:57:55;17.48;;;7.53;;
75400;SDS011;63974;47.538;18.972;2023-03-02T07:01:00;17.20;;;7.53;;
75400;SDS011;63974;47.538;18.972;2023-03-02T07:04:03;16.92;;;7.05;;
75400;SDS011;63974;47.538;18.972;2023-03-02T07:07:06;16.20;;;7.57;;
75400;SDS011;63974;47.538;18.972;2023-03-02T07:10:09;15.23;;;6.68;;
75400;SDS011;63974;47.538;18.972;2023-03-02T07:13:15;20.38;;;8.13;;
75400;SDS011;63974;47.538;18.972;2023-03-02T07:16:18;17.00;;;7.37;;
75400;SDS011;63974;47.538;18.972;2023-03-02T07:19:21;14.82;;;7.53;;
75400;SDS011;63974;47.538;18.972;2023-03-02T07:22:24;17.83;;;7.53;;
75400;SDS011;63974;47.538;18.972;2023-03-02T07:25:27;14.77;;;6.93;;
75400;SDS011;63974;47.538;18.972;2023-03-02T07:28:30;17.23;;;7.53;;
75400;SDS011;63974;47.538;18.972;2023-03-02T07:31:32;17.97;;;8.37;;
75400;SDS011;63974;47.538;18.972;2023-03-02T07:34:36;17.42;;;8.63;;
75400;SDS011;63974;47.538;18.972;2023-03-02T07:37:38;20.20;;;9.35;;
75400;SDS011;63974;47.538;18.972;2023-03-02T07:40:43;18.63;;;7.78;;
75400;SDS011;63974;47.538;18.972;2023-03-02T07:43:46;21.85;;;9.30;;
75400;SDS011;63974;47.538;18.972;2023-03-02T07:46:49;20.77;;;10.80;;
75400;SDS011;63974;47.538;18.972;2023-03-02T07:49:51;19.52;;;9.15;;
75400;SDS011;63974;47.538;18.972;2023-03-02T07:52:54;17.08;;;8.20;;
75400;SDS011;63974;47.538;18.972;2023-03-02T07:56:04;18.10;;;8.05;;
75400;SDS011;63974;47.538;18.972;2023-03-02T07:59:08;18.92;;;7.65;;
75400;SDS011;63974;47.538;18.972;2023-03-02T08:02:13;14.93;;;7.50;;
75400;SDS011;63974;47.538;18.972;2023-03-02T08:05:18;16.85;;;7.95;;
75400;SDS011;63974;47.538;18.972;2023-03-02T08:08:21;17.92;;;7.60;;
75400;SDS011;63974;47.538;18.972;2023-03-02T08:11:24;17.50;;;7.93;;
75400;SDS011;63974;47.538;18.972;2023-03-02T08:14:26;20.40;;;8.65;;
75400;SDS011;63974;47.538;18.972;2023-03-02T08:17:29;15.90;;;7.53;;
75400;SDS011;63974;47.538;18.972;2023-03-02T08:20:34;16.38;;;8.13;;
75400;SDS011;63974;47.538;18.972;2023-03-02T08:23:37;19.17;;;8.40;;
75400;SDS011;63974;47.538;18.972;2023-03-02T08:26:40;19.17;;;8.13;;
75400;SDS011;63974;47.538;18.972;2023-03-02T08:29:42;17.15;;;8.45;;
75400;SDS011;63974;47.538;18.972;2023-03-02T08:32:45;19.97;;;9.17;;
75400;SDS011;63974;47.538;18.972;2023-03-02T08:35:55;20.30;;;9.02;;
75400;SDS011;63974;47.538;18.972;2023-03-02T08:39:02;21.10;;;9.77;;
75400;SDS011;63974;47.538;18.972;2023-03-02T08:42:05;20.00;;;8.55;;
75400;SDS011;63974;47.538;18.972;2023-03-02T08:45:08;20.70;;;9.50;;
75400;SDS011;63974;47.538;18.972;2023-03-02T08:48:11;18.33;;;8.40;;
75400;SDS011;63974;47.538;18.972;2023-03-02T08:51:15;18.27;;;7.63;;
75400;SDS011;63974;47.538;18.972;2023-03-02T08:54:23;18.55;;;8.98;;
75400;SDS011;63974;47.538;18.972;2023-03-02T08:57:26;18.88;;;8.95;;
75400;SDS011;63974;47.538;18.972;2023-03-02T09:00:29;19.73;;;8.13;;
75400;SDS011;63974;47.538;18.972;2023-03-02T09:03:33;19.33;;;9.07;;
75400;SDS011;63974;47.538;18.972;2023-03-02T09:06:37;18.58;;;8.98;;
75400;SDS011;63974;47.538;18.972;2023-03-02T09:09:45;19.90;;;8.88;;
75400;SDS011;63974;47.538;18.972;2023-03-02T09:12:48;24.50;;;8.90;;
75400;SDS011;63974;47.538;18.972;2023-03-02T09:15:51;21.30;;;9.68;;
75400;SDS011;63974;47.538;18.972;2023-03-02T09:18:54;17.70;;;8.83;;
75400;SDS011;63974;47.538;18.972;2023-03-02T09:21:57;23.20;;;9.15;;
75400;SDS011;63974;47.538;18.972;2023-03-02T09:24:59;22.90;;;9.23;;
75400;SDS011;63974;47.538;18.972;2023-03-02T09:28:03;17.15;;;8.65;;
75400;SDS011;63974;47.538;18.972;2023-03-02T09:31:06;20.30;;;9.15;;
75400;SDS011;63974;47.538;18.972;2023-03-02T09:34:10;23.73;;;9.27;;
75400;SDS011;63974;47.538;18.972;2023-03-02T09:37:12;23.25;;;9.55;;
75400;SDS011;63974;47.538;18.972;2023-03-02T09:40:19;20.83;;;9.35;;
75400;SDS011;63974;47.538;18.972;2023-03-02T09:47:14;25.23;;;10.10;;
75400;SDS011;63974;47.538;18.972;2023-03-02T09:51:03;21.83;;;9.03;;
75400;SDS011;63974;47.538;18.972;2023-03-02T09:54:42;23.13;;;9.60;;
75400;SDS011;63974;47.538;18.972;2023-03-02T09:57:45;17.10;;;9.30;;
75400;SDS011;63974;47.538;18.972;2023-03-02T10:04:35;21.08;;;8.68;;
75400;SDS011;63974;47.538;18.972;2023-03-02T10:07:46;19.90;;;8.97;;
75400;SDS011;63974;47.538;18.972;2023-03-02T10:10:56;20.27;;;8.57;;
75400;SDS011;63974;47.538;18.972;2023-03-02T10:24:40;18.40;;;10.07;;
75400;SDS011;63974;47.538;18.972;2023-03-02T10:27:54;30.30;;;12.77;;
75400;SDS011;63974;47.538;18.972;2023-03-02T10:31:07;27.95;;;11.38;;
75400;SDS011;63974;47.538;18.972;2023-03-02T10:34:14;24.00;;;10.23;;
75400;SDS011;63974;47.538;18.972;2023-03-02T10:37:18;21.30;;;10.00;;
75400;SDS011;63974;47.538;18.972;2023-03-02T10:44:03;18.58;;;8.57;;
75400;SDS011;63974;47.538;18.972;2023-03-02T10:47:18;21.15;;;9.77;;
75400;SDS011;63974;47.538;18.972;2023-03-02T10:50:28;21.10;;;9.60;;
75400;SDS011;63974;47.538;18.972;2023-03-02T10:53:32;20.23;;;9.45;;
75400;SDS011;63974;47.538;18.972;2023-03-02T10:56:35;22.30;;;10.03;;
75400;SDS011;63974;47.538;18.972;2023-03-02T10:59:42;21.15;;;9.85;;
75400;SDS011;63974;47.538;18.972;2023-03-02T11:02:59;19.95;;;9.25;;
75400;SDS011;63974;47.538;18.972;2023-03-02T11:06:17;30.85;;;12.88;;
75400;SDS011;63974;47.538;18.972;2023-03-02T11:09:21;27.88;;;10.98;;
75400;SDS011;63974;47.538;18.972;2023-03-02T11:12:24;21.30;;;9.83;;
75400;SDS011;63974;47.538;18.972;2023-03-02T11:18:35;21.60;;;9.85;;
75400;SDS011;63974;47.538;18.972;2023-03-02T11:21:51;23.05;;;10.32;;
75400;SDS011;63974;47.538;18.972;2023-03-02T11:24:59;20.50;;;10.18;;
75400;SDS011;63974;47.538;18.972;2023-03-02T11:28:12;21.33;;;9.53;;
75400;SDS011;63974;47.538;18.972;2023-03-02T11:35:16;20.52;;;10.20;;
75400;SDS011;63974;47.538;18.972;2023-03-02T11:38:25;22.85;;;9.70;;
75400;SDS011;63974;47.538;18.972;2023-03-02T11:41:32;21.10;;;10.45;;
75400;SDS011;63974;47.538;18.972;2023-03-02T11:44:37;21.73;;;10.60;;
75400;SDS011;63974;47.538;18.972;2023-03-02T11:48:02;20.45;;;10.43;;
75400;SDS011;63974;47.538;18.972;2023-03-02T11:58:04;22.80;;;10.98;;
75400;SDS011;63974;47.538;18.972;2023-03-02T12:01:18;22.63;;;10.13;;
75400;SDS011;63974;47.538;18.972;2023-03-02T12:04:26;23.38;;;10.30;;
75400;SDS011;63974;47.538;18.972;2023-03-02T12:07:35;21.48;;;10.10;;
75400;SDS011;63974;47.538;18.972;2023-03-02T12:10:40;20.15;;;9.82;;
75400;SDS011;63974;47.538;18.972;2023-03-02T12:17:32;20.63;;;10.13;;
75400;SDS011;63974;47.538;18.972;2023-03-02T12:20:37;21.92;;;10.18;;
75400;SDS011;63974;47.538;18.972;2023-03-02T12:26:45;22.17;;;10.75;;
75400;SDS011;63974;47.538;18.972;2023-03-02T12:29:49;20.30;;;10.18;;
75400;SDS011;63974;47.538;18.972;2023-03-02T12:36:05;23.75;;;10.63;;
75400;SDS011;63974;47.538;18.972;2023-03-02T12:43:02;21.70;;;11.18;;
75400;SDS011;63974;47.538;18.972;2023-03-02T12:46:26;19.42;;;10.05;;
75400;SDS011;63974;47.538;18.972;2023-03-02T12:49:40;25.70;;;11.03;;
75400;SDS011;63974;47.538;18.972;2023-03-02T12:56:00;23.20;;;11.25;;
75400;SDS011;63974;47.538;18.972;2023-03-02T12:59:03;28.48;;;12.00;;
75400;SDS011;63974;47.538;18.972;2023-03-02T13:02:29;23.58;;;10.40;;
75400;SDS011;63974;47.538;18.972;2023-03-02T13:05:33;27.07;;;11.83;;
75400;SDS011;63974;47.538;18.972;2023-03-02T13:08:37;29.17;;;11.95;;
75400;SDS011;63974;47.538;18.972;2023-03-02T13:11:40;24.58;;;11.52;;
75400;SDS011;63974;47.538;18.972;2023-03-02T13:14:55;25.13;;;12.23;;
75400;SDS011;63974;47.538;18.972;2023-03-02T13:18:04;23.17;;;11.48;;
75400;SDS011;63974;47.538;18.972;2023-03-02T13:21:08;27.83;;;12.57;;
75400;SDS011;63974;47.538;18.972;2023-03-02T13:27:23;29.45;;;12.18;;
75400;SDS011;63974;47.538;18.972;2023-03-02T13:30:31;24.35;;;11.00;;
75400;SDS011;63974;47.538;18.972;2023-03-02T13:33:39;19.98;;;10.55;;
75400;SDS011;63974;47.538;18.972;2023-03-02T13:36:46;24.13;;;10.90;;
75400;SDS011;63974;47.538;18.972;2023-03-02T13:39:53;27.13;;;12.10;;
75400;SDS011;63974;47.538;18.972;2023-03-02T13:43:00;23.63;;;11.20;;
75400;SDS011;63974;47.538;18.972;2023-03-02T13:49:12;26.20;;;11.90;;
75400;SDS011;63974;47.538;18.972;2023-03-02T13:52:27;26.83;;;11.60;;
75400;SDS011;63974;47.538;18.972;2023-03-02T13:55:32;25.10;;;12.70;;
75400;SDS011;63974;47.538;18.972;2023-03-02T13:58:36;24.23;;;12.52;;
75400;SDS011;63974;47.538;18.972;2023-03-02T14:01:41;24.52;;;11.70;;
75400;SDS011;63974;47.538;18.972;2023-03-02T14:04:45;28.42;;;13.18;;
75400;SDS011;63974;47.538;18.972;2023-03-02T14:07:48;30.47;;;12.33;;
75400;SDS011;63974;47.538;18.972;2023-03-02T14:10:52;27.77;;;12.80;;
75400;SDS011;63974;47.538;18.972;2023-03-02T14:13:58;26.90;;;11.85;;
75400;SDS011;63974;47.538;18.972;2023-03-02T14:17:05;20.92;;;10.95;;
75400;SDS011;63974;47.538;18.972;2023-03-02T14:20:18;25.67;;;12.23;;
75400;SDS011;63974;47.538;18.972;2023-03-02T14:23:22;29.73;;;12.47;;
75400;SDS011;63974;47.538;18.972;2023-03-02T14:29:41;28.35;;;12.60;;
75400;SDS011;63974;47.538;18.972;2023-03-02T14:32:45;28.08;;;13.30;;
75400;SDS011;63974;47.538;18.972;2023-03-02T14:35:49;25.98;;;12.93;;
75400;SDS011;63974;47.538;18.972;2023-03-02T14:38:55;24.80;;;11.47;;
75400;SDS011;63974;47.538;18.972;2023-03-02T14:41:59;30.35;;;11.70;;
75400;SDS011;63974;47.538;18.972;2023-03-02T14:45:03;30.98;;;12.90;;
75400;SDS011;63974;47.538;18.972;2023-03-02T14:48:06;27.08;;;13.05;;
75400;SDS011;63974;47.538;18.972;2023-03-02T14:51:20;32.92;;;14.35;;
75400;SDS011;63974;47.538;18.972;2023-03-02T14:54:25;30.87;;;14.50;;
75400;SDS011;63974;47.538;18.972;2023-03-02T14:57:32;38.28;;;16.15;;
75400;SDS011;63974;47.538;18.972;2023-03-02T15:00:40;35.42;;;17.15;;
75400;SDS011;63974;47.538;18.972;2023-03-02T15:03:44;33.53;;;16.45;;
75400;SDS011;63974;47.538;18.972;2023-03-02T15:06:47;32.13;;;16.05;;
75400;SDS011;63974;47.538;18.972;2023-03-02T15:09:50;27.93;;;13.13;;
75400;SDS011;63974;47.538;18.972;2023-03-02T15:12:53;29.65;;;13.65;;
75400;SDS011;63974;47.538;18.972;2023-03-02T15:15:56;30.52;;;14.93;;
75400;SDS011;63974;47.538;18.972;2023-03-02T15:18:59;29.10;;;13.88;;
75400;SDS011;63974;47.538;18.972;2023-03-02T15:22:02;29.73;;;14.25;;
75400;SDS011;63974;47.538;18.972;2023-03-02T15:25:06;29.60;;;14.80;;
75400;SDS011;63974;47.538;18.972;2023-03-02T15:28:09;26.52;;;13.50;;
75400;SDS011;63974;47.538;18.972;2023-03-02T15:31:12;30.48;;;14.00;;
75400;SDS011;63974;47.538;18.972;2023-03-02T15:34:17;28.85;;;13.73;;
75400;SDS011;63974;47.538;18.972;2023-03-02T15:37:20;28.00;;;13.45;;
75400;SDS011;63974;47.538;18.972;2023-03-02T15:40:24;32.40;;;14.27;;
75400;SDS011;63974;47.538;18.972;2023-03-02T15:43:27;33.50;;;15.73;;
75400;SDS011;63974;47.538;18.972;2023-03-02T15:46:29;30.23;;;15.65;;
75400;SDS011;63974;47.538;18.972;2023-03-02T15:49:32;29.60;;;14.27;;
75400;SDS011;63974;47.538;18.972;2023-03-02T15:52:35;30.90;;;16.30;;
75400;SDS011;63974;47.538;18.972;2023-03-02T15:55:41;26.63;;;13.63;;
75400;SDS011;63974;47.538;18.972;2023-03-02T15:58:44;29.83;;;14.10;;
75400;SDS011;63974;47.538;18.972;2023-03-02T16:01:48;31.17;;;14.60;;
75400;SDS011;63974;47.538;18.972;2023-03-02T16:04:51;32.60;;;14.27;;
75400;SDS011;63974;47.538;18.972;2023-03-02T16:07:54;31.58;;;15.43;;
75400;SDS011;63974;47.538;18.972;2023-03-02T16:10:58;30.63;;;14.67;;
75400;SDS011;63974;47.538;18.972;2023-03-02T16:14:02;29.80;;;14.40;;
75400;SDS011;63974;47.538;18.972;2023-03-02T16:17:05;34.60;;;16.15;;
75400;SDS011;63974;47.538;18.972;2023-03-02T16:20:08;36.05;;;17.08;;
75400;SDS011;63974;47.538;18.972;2023-03-02T16:23:11;37.28;;;17.45;;
75400;SDS011;63974;47.538;18.972;2023-03-02T16:26:15;40.77;;;19.80;;
75400;SDS011;63974;47.538;18.972;2023-03-02T16:29:20;39.42;;;20.00;;
75400;SDS011;63974;47.538;18.972;2023-03-02T16:32:25;38.42;;;19.05;;
75400;SDS011;63974;47.538;18.972;2023-03-02T16:35:30;38.42;;;18.02;;
75400;SDS011;63974;47.538;18.972;2023-03-02T16:38:34;34.08;;;15.70;;
75400;SDS011;63974;47.538;18.972;2023-03-02T16:41:39;30.03;;;15.63;;
75400;SDS011;63974;47.538;18.972;2023-03-02T16:44:43;38.65;;;17.20;;
75400;SDS011;63974;47.538;18.972;2023-03-02T16:47:47;39.47;;;17.63;;
75400;SDS011;63974;47.538;18.972;2023-03-02T16:50:55;37.72;;;18.30;;
75400;SDS011;63974;47.538;18.972;2023-03-02T16:53:59;42.95;;;19.48;;
75400;SDS011;63974;47.538;18.972;2023-03-02T16:57:02;34.43;;;17.00;;
75400;SDS011;63974;47.538;18.972;2023-03-02T17:00:05;32.58;;;16.77;;
75400;SDS011;63974;47.538;18.972;2023-03-02T17:03:10;38.72;;;17.88;;
75400;SDS011;63974;47.538;18.972;2023-03-02T17:06:14;44.15;;;18.67;;
75400;SDS011;63974;47.538;18.972;2023-03-02T17:09:17;42.28;;;20.50;;
75400;SDS011;63974;47.538;18.972;2023-03-02T17:12:20;43.57;;;19.33;;
75400;SDS011;63974;47.538;18.972;2023-03-02T17:15:23;34.97;;;16.80;;
75400;SDS011;63974;47.538;18.972;2023-03-02T17:18:26;39.28;;;17.75;;
75400;SDS011;63974;47.538;18.972;2023-03-02T17:21:29;42.45;;;18.23;;
75400;SDS011;63974;47.538;18.972;2023-03-02T17:24:33;46.47;;;20.77;;
75400;SDS011;63974;47.538;18.972;2023-03-02T17:27:36;38.60;;;17.70;;
75400;SDS011;63974;47.538;18.972;2023-03-02T17:30:41;35.95;;;16.20;;
75400;SDS011;63974;47.538;18.972;2023-03-02T17:33:45;37.40;;;17.08;;
75400;SDS011;63974;47.538;18.972;2023-03-02T17:36:48;33.97;;;16.35;;
75400;SDS011;63974;47.538;18.972;2023-03-02T17:39:51;32.38;;;15.75;;
75400;SDS011;63974;47.538;18.972;2023-03-02T17:42:54;33.03;;;15.30;;
75400;SDS011;63974;47.538;18.972;2023-03-02T17:46:18;30.05;;;15.38;;
75400;SDS011;63974;47.538;18.972;2023-03-02T17:49:24;32.17;;;15.88;;
75400;SDS011;63974;47.538;18.972;2023-03-02T17:52:27;30.35;;;15.52;;
75400;SDS011;63974;47.538;18.972;2023-03-02T17:55:31;32.25;;;15.32;;
75400;SDS011;63974;47.538;18.972;2023-03-02T17:58:34;27.83;;;12.97;;
75400;SDS011;63974;47.538;18.972;2023-03-02T18:01:46;32.53;;;14.40;;
75400;SDS011;63974;47.538;18.972;2023-03-02T18:04:49;32.30;;;15.15;;
75400;SDS011;63974;47.538;18.972;2023-03-02T18:07:52;31.63;;;15.27;;
75400;SDS011;63974;47.538;18.972;2023-03-02T18:10:56;35.97;;;16.10;;
75400;SDS011;63974;47.538;18.972;2023-03-02T18:14:00;40.87;;;15.57;;
75400;SDS011;63974;47.538;18.972;2023-03-02T18:17:03;42.80;;;19.10;;
75400;SDS011;63974;47.538;18.972;2023-03-02T18:20:09;38.70;;;18.05;;
75400;SDS011;63974;47.538;18.972;2023-03-02T18:23:13;36.85;;;16.63;;
75400;SDS011;63974;47.538;18.972;2023-03-02T18:26:16;35.35;;;15.52;;
75400;SDS011;63974;47.538;18.972;2023-03-02T18:29:20;37.13;;;16.37;;
75400;SDS011;63974;47.538;18.972;2023-03-02T18:32:24;37.50;;;14.68;;
75400;SDS011;63974;47.538;18.972;2023-03-02T18:35:27;34.30;;;14.73;;
75400;SDS011;63974;47.538;18.972;2023-03-02T18:38:34;34.83;;;14.98;;
75400;SDS011;63974;47.538;18.972;2023-03-02T18:41:37;32.47;;;15.77;;
75400;SDS011;63974;47.538;18.972;2023-03-02T18:44:40;46.40;;;17.77;;
75400;SDS011;63974;47.538;18.972;2023-03-02T18:47:43;59.90;;;25.33;;
75400;SDS011;63974;47.538;18.972;2023-03-02T18:50:49;74.90;;;28.38;;
75400;SDS011;63974;47.538;18.972;2023-03-02T18:53:52;59.88;;;25.90;;
75400;SDS011;63974;47.538;18.972;2023-03-02T18:56:56;41.67;;;18.08;;
75400;SDS011;63974;47.538;18.972;2023-03-02T19:00:01;32.43;;;14.97;;
75400;SDS011;63974;47.538;18.972;2023-03-02T19:03:05;29.98;;;13.80;;
75400;SDS011;63974;47.538;18.972;2023-03-02T19:06:08;32.60;;;14.38;;
75400;SDS011;63974;47.538;18.972;2023-03-02T19:09:11;37.65;;;16.05;;
75400;SDS011;63974;47.538;18.972;2023-03-02T19:12:14;28.13;;;13.05;;